Nearby METAR Reports

 

KPAO - Palo Alto, California, USA
Distance from KPAO: NNW 0nm, 0mi
Updated: Wed, 20-Oct-2021 11:47am PDT
NOT Current
Nearby showers, Overcast
Nearby showers, Overcast
 Wind from SSE
Wind: SSE 13 mph , 20 km/h
Temperature: 64°F , 18°C
Dew Point: 52°F , 11°C
Humidity: 64%
Barometer: 30.09 inHg , 1019 hPa
Summary: Nearby Showers
Clouds: Overcast
Visibility: 10 miles , 16 km
Cloud details: Scattered 2500 ft
Overcast 4200 ft
2021/10/20 18:47 KPAO 201847Z 16011KT 10SM VCSH SCT025 OVC042 18/11 A3009
KSQL - San Carlos Airpo, California, USA
Distance from KPAO: WNW 7nm, 8mi
Updated: Wed, 20-Oct-2021 11:51am PDT
Overcast
Overcast
 Wind from S
Wind: S 13 mph , 20 km/h
Temperature: 64°F , 18°C
Dew Point: 54°F , 12°C
Humidity: 68%
Barometer: 30.09 inHg , 1019 hPa
Clouds: Overcast
Visibility: 10 miles , 16 km
Cloud details: Broken 2600 ft
Overcast 4000 ft
2021/10/20 18:51 KSQL 201851Z 18011KT 10SM BKN026 OVC040 18/12 A3009
 
KSJC - San Jose, California, USA
Distance from KPAO: ESE 11nm, 13mi
Updated: Wed, 20-Oct-2021 12:53pm PDT
Overcast
Overcast
 Wind from SW
Wind: SW 8 mph , 13 km/h
Temperature: 66°F , 19°C
Dew Point: 52°F , 11°C
Humidity: 60%
Barometer: 30.09 inHg , 1019 hPa
Clouds: Overcast
Visibility: 10 miles , 16 km
Cloud details: Few Clouds 1600 ft
Broken 3600 ft
Overcast 8000 ft
2021/10/20 19:53 KSJC 201953Z 22007KT 10SM FEW016 BKN036 OVC080 19/11 A3009 RMK AO2 SLP187 T01890106
KHWD - Hayward, California, USA
Distance from KPAO: N 12nm, 14mi
Updated: Wed, 20-Oct-2021 12:54pm PDT
Overcast
Overcast
 Wind from SSE
Wind: SSE 8 mph , 13 km/h
Temperature: 66°F , 19°C
Dew Point: 48°F , 9°C
Humidity: 52%
Barometer: 30.08 inHg , 1018.6 hPa
Clouds: Overcast
Visibility: 10 miles , 16 km
Cloud details: Overcast 2900 ft
2021/10/20 19:54 KHWD 201954Z 16007KT 10SM OVC029 19/09 A3008 RMK AO2 SLP193 T01940089
 
KSFO - San Francisco, California, USA
Distance from KPAO: NW 16nm, 18mi
Updated: Wed, 20-Oct-2021 12:56pm PDT
Broken
Broken
 Wind from S
Wind: S 12 mph , 19 km/h
Temperature: 66°F , 19°C
Dew Point: 55°F , 13°C
Humidity: 68%
Barometer: 30.08 inHg , 1018.6 hPa
Clouds: Broken
Visibility: 10 miles , 16 km
Cloud details: Few Clouds 1000 ft
Broken 2100 ft
Broken 2800 ft
2021/10/20 19:56 KSFO 201956Z 18010KT 10SM FEW010 BKN021 BKN028 19/13 A3008 RMK AO2 SLP184 T01890128 $
KRHV - San Jose/Reid, California, USA
Distance from KPAO: ESE 16nm, 18mi
Updated: Wed, 20-Oct-2021 12:55pm PDT
Overcast
Overcast
 Wind from S
Wind: S 8 mph , 13 km/h
Temperature: 70°F , 21°C
Dew Point: 46°F , 8°C
Humidity: 43%
Barometer: 30.09 inHg , 1019 hPa
Clouds: Overcast
Visibility: 10 miles , 16 km
Cloud details: Broken 4500 ft
Overcast 8000 ft
2021/10/20 19:55 KRHV 201955Z 17007KT 10SM BKN045 OVC080 21/08 A3009
 
KOAK - Oakland, California, USA
Distance from KPAO: NNW 16nm, 18mi
Updated: Wed, 20-Oct-2021 12:53pm PDT
Overcast
Overcast
 Wind from SSE
Wind: SSE 10 mph , 17 km/h
Temperature: 64°F , 18°C
Dew Point: 54°F , 12°C
Humidity: 68%
Barometer: 30.09 inHg , 1019 hPa
Clouds: Overcast
Visibility: 10 miles , 16 km
Cloud details: Few Clouds 1000 ft
Overcast 2500 ft
2021/10/20 19:53 KOAK 201953Z 15009KT 10SM FEW010 OVC025 18/12 A3009 RMK AO2 SLP189 T01830117
KHAF - Half Moon Bay, California, USA
Distance from KPAO: W 19nm, 22mi
Updated: Wed, 20-Oct-2021 12:55pm PDT
Mist, Overcast
Mist, Overcast
 Wind from S
Wind: S 10 mph , 17 km/h
Temperature: 59°F , 15°C
Dew Point: 55°F , 13°C
Humidity: 88%
Barometer: 30.09 inHg , 1019 hPa
Summary: Mist
Clouds: Overcast
Visibility: 6 miles , 10 km
Cloud details: Overcast 1500 ft
2021/10/20 19:55 KHAF 201955Z AUTO 18009KT 6SM BR OVC015 15/13 A3009 RMK AO2
 
KLVK - Livermore, California, USA
Distance from KPAO: NE 20nm, 23mi
Updated: Wed, 20-Oct-2021 12:53pm PDT
Overcast
Overcast
 Wind from SSW
Wind: SSW 8 mph , 13 km/h
Temperature: 66°F , 19°C
Dew Point: 46°F , 8°C
Humidity: 49%
Barometer: 30.08 inHg , 1018.6 hPa
Clouds: Overcast
Visibility: 10 miles , 16 km
Cloud details: Broken 3500 ft
Overcast 5000 ft
2021/10/20 19:53 KLVK 201953Z 21007KT 10SM BKN035 OVC050 19/08 A3008 RMK AO2 SLP183 T01940083
KC83 - Byron, California, USA
Distance from KPAO: NE 32nm, 40mi
Updated: Wed, 20-Oct-2021 12:55pm PDT
Overcast
Overcast
 Wind from NE
Wind: NE 7 mph , 11 km/h
Temperature: 66°F , 19°C
Dew Point: 48°F , 9°C
Humidity: 52%
Barometer: 30.09 inHg , 1019 hPa
Clouds: Overcast
Visibility: 10 miles , 16 km
Cloud details: Overcast 4100 ft
2021/10/20 19:55 KC83 201955Z AUTO 04006KT 10SM OVC041 19/09 A3009 RMK AO2
 
KCCR - Concord, California, USA
Distance from KPAO: N 33nm, 37mi
Updated: Wed, 20-Oct-2021 12:53pm PDT
Overcast
Overcast
 Wind from N
Wind: N 7 mph , 11 km/h
Temperature: 64°F , 18°C
Dew Point: 52°F , 11°C
Humidity: 64%
Barometer: 30.09 inHg , 1019 hPa
Clouds: Overcast
Visibility: 10 miles , 16 km
Cloud details: Overcast 3200 ft
2021/10/20 19:53 KCCR 201953Z 01006KT 10SM OVC032 18/11 A3009 RMK AO2 SLP174 T01780111
KWVI - Watsonville, California, USA
Distance from KPAO: SSE 35nm, 40mi
Updated: Wed, 20-Oct-2021 12:53pm PDT
Overcast
Overcast
 Wind from W
Wind: W 8 mph , 13 km/h
Temperature: 59°F , 15°C
Dew Point: 52°F , 11°C
Humidity: 77%
Barometer: 30.12 inHg , 1020 hPa
Clouds: Overcast
Visibility: 10 miles , 16 km
Cloud details: Overcast 2600 ft
2021/10/20 19:53 KWVI 201953Z AUTO 28007KT 10SM OVC026 15/11 A3012 RMK AO2 SLP198 T01500106
 
KAPC - Napa, California, USA
Distance from KPAO: N 46nm, 53mi
Updated: Wed, 20-Oct-2021 12:58pm PDT
Overcast
Overcast
 Wind from calm
Wind: Calm
Temperature: 59°F , 15°C
Dew Point: 55°F , 13°C
Humidity: 88%
Barometer: 30.10 inHg , 1019.3 hPa
Clouds: Overcast
Visibility: 10 miles , 16 km
Cloud details: Broken 1000 ft
Overcast 2200 ft
2021/10/20 19:58 KAPC 201958Z 00000KT 10SM BKN010 OVC022 15/13 A3010 RMK AO2 T01500128
KDVO - Novato/Gnoss Fld, California, USA
Distance from KPAO: NNW 46nm, 53mi
Updated: Wed, 20-Oct-2021 12:55pm PDT
Mist, Broken
Mist, Broken
 Wind from SE
Wind: SE 6 mph , 9 km/h
Temperature: 57°F , 14°C
Dew Point: 57°F , 14°C
Humidity: 100%
Barometer: 30.10 inHg , 1019.3 hPa
Summary: Mist
Clouds: Broken
Visibility: 1 3/4 miles , 2.8 km
Cloud details: Scattered 500 ft
Scattered 900 ft
Broken 1300 ft
2021/10/20 19:55 KDVO 201955Z AUTO 13005KT 1 3/4SM BR SCT005 SCT009 BKN013 14/14 A3010 RMK AO2
 
KCVH - Hollister Muni, California, USA
Distance from KPAO: SE 48nm, 55mi
Updated: Wed, 20-Oct-2021 12:55pm PDT
Broken
Broken
 Wind from calm
Wind: Calm
Temperature: 68°F , 20°C
Dew Point: 37°F , 3°C
Humidity: 33%
Barometer: 30.10 inHg , 1019.3 hPa
Clouds: Broken
Visibility: 10 miles , 16 km
Cloud details: Scattered 3500 ft
Broken 4500 ft
2021/10/20 19:55 KCVH 201955Z AUTO 00000KT 10SM SCT035 BKN045 20/03 A3010 RMK A01
KSUU - Travis Afb/Fairf, California, USA
Distance from KPAO: ENE 49nm, 56mi
Updated: Wed, 20-Oct-2021 12:58pm PDT
Overcast
Overcast
 Wind from calm
Wind: Calm
Temperature: 63°F , 17°C
Dew Point: 54°F , 12°C
Humidity: 73%
Barometer: 30.09 inHg , 1019 hPa
Clouds: Overcast
Visibility: 10 miles , 16 km
Cloud details: Overcast 3000 ft
2021/10/20 19:58 KSUU 201958Z AUTO 00000KT 10SM OVC030 17/12 A3009 RMK AO2 RAB46E55 SLP196 P0000 T01700115 $
 
KSCK - Stockton, California, USA
Distance from KPAO: ENE 49nm, 56mi
Updated: Wed, 20-Oct-2021 12:55pm PDT
Overcast
Overcast
 Wind from SSE
Wind: SSE 7 mph , 11 km/h
Temperature: 66°F , 19°C
Dew Point: 34°F , 1°C
Humidity: 30%
Barometer: 30.08 inHg , 1018.6 hPa
Clouds: Overcast
Visibility: 10 miles , 16 km
Cloud details: Scattered 5000 ft
Overcast 6500 ft
2021/10/20 19:55 KSCK 201955Z 15006KT 10SM SCT050 OVC065 19/01 A3008 RMK AO2 SLP187 T01940006
KO69 - Petaluma, California, USA
Distance from KPAO: W 53nm, 61mi
Updated: Wed, 20-Oct-2021 12:55pm PDT
Scattered
Scattered
 Wind from varies
Wind: varies 5 mph , 7 km/h
Temperature: 59°F , 15°C
Dew Point: 55°F , 13°C
Humidity: 88%
Barometer: 30.10 inHg , 1019.3 hPa
Clouds: Scattered
Visibility: 10 miles , 16 km
Cloud details: Scattered 1100 ft
2021/10/20 19:55 KO69 201955Z AUTO VRB04KT 10SM SCT011 15/13 A3010 RMK A01
 
KSNS - Salinas, California, USA
Distance from KPAO: SSE 54nm, 62mi
Updated: Wed, 20-Oct-2021 12:53pm PDT
Overcast
Overcast
 Wind from W
Wind: W 10 mph , 17 km/h
Temperature: 66°F , 19°C
Dew Point: 46°F , 8°C
Humidity: 49%
Barometer: 30.09 inHg , 1019 hPa
Clouds: Overcast
Visibility: 10 miles , 16 km
Cloud details: Overcast 4400 ft
2021/10/20 19:53 KSNS 201953Z 28009KT 10SM OVC044 19/08 A3009 RMK AO2 SLP199 T01890078
KMRY - Monterey, California, USA
Distance from KPAO: SSE 54nm, 62mi
Updated: Wed, 20-Oct-2021 12:54pm PDT
Overcast
Overcast
 Wind from N
Wind: N 6 mph , 9 km/h
Temperature: 63°F , 17°C
Dew Point: 45°F , 7°C
Humidity: 52%
Barometer: 30.11 inHg , 1019.6 hPa
Clouds: Overcast
Visibility: 10 miles , 16 km
Cloud details: Broken 4000 ft
Overcast 5000 ft
2021/10/20 19:54 KMRY 201954Z 35005KT 10SM BKN040 OVC050 17/07 A3011 RMK AO2 SLP206 T01720072
 
KVCB - Vacaville, California, USA
Distance from KPAO: NE 55nm, 63mi
Updated: Wed, 20-Oct-2021 12:53pm PDT
Overcast
Overcast
 Wind from calm
Wind: Calm
Temperature: 61°F , 16°C
Dew Point: 54°F , 12°C
Humidity: 77%
Barometer: 30.10 inHg , 1019.3 hPa
Clouds: Overcast
Visibility: 10 miles , 16 km
Cloud details: Few Clouds 2600 ft
Overcast 3000 ft
2021/10/20 19:53 KVCB 201953Z AUTO 00000KT 10SM FEW026 OVC030 16/12 A3010 RMK AO2 RAE03 SLP193 P0000 T01610122
KMOD - Modesto, California, USA
Distance from KPAO: E 56nm, 64mi
Updated: Wed, 20-Oct-2021 12:53pm PDT
Overcast
Overcast
 Wind from SE
Wind: SE 8 mph , 13 km/h
Temperature: 66°F , 19°C
Dew Point: 36°F , 2°C
Humidity: 32%
Barometer: 30.08 inHg , 1018.6 hPa
Clouds: Overcast
Visibility: 10 miles , 16 km
Cloud details: Overcast 5500 ft
2021/10/20 19:53 KMOD 201953Z 14007KT 10SM OVC055 19/02 A3008 RMK AO2 SLP184 T01940022
 
KEDU - Davis, California, USA
Distance from KPAO: NE 66nm, 76mi
Updated: Wed, 20-Oct-2021 12:55pm PDT
Overcast
Overcast
 Wind from calm
Wind: Calm
Temperature: 63°F , 17°C
Dew Point: 50°F , 10°C
Humidity: 64%
Barometer: 30.11 inHg , 1019.6 hPa
Clouds: Overcast
Visibility: 10 miles , 16 km
Cloud details: Overcast 3300 ft
2021/10/20 19:55 KEDU 201955Z AUTO 00000KT 10SM OVC033 17/10 A3011 RMK AO1
KSAC - Sacramento, California, USA
Distance from KPAO: NE 70nm, 81mi
Updated: Wed, 20-Oct-2021 12:53pm PDT
Light rain, Overcast
Light rain, Overcast
 Wind from NNW
Wind: NNW 3 mph , 6 km/h
Temperature: 63°F , 17°C
Dew Point: 50°F , 10°C
Humidity: 64%
Barometer: 30.10 inHg , 1019.3 hPa
Summary: Light rain
Clouds: Overcast
Visibility: 10 miles , 16 km
Cloud details: Overcast 4300 ft
2021/10/20 19:53 KSAC 201953Z 34003KT 10SM -RA OVC043 17/10 A3010 RMK AO2 RAB47 SLP193 P0000 T01720100
 
KSTS - Santa Rosa, California, USA
Distance from KPAO: NW 71nm, 82mi
Updated: Wed, 20-Oct-2021 12:53pm PDT
Mist, Overcast
Mist, Overcast
 Wind from calm
Wind: Calm
Temperature: 55°F , 13°C
Dew Point: 55°F , 13°C
Humidity: 100%
Barometer: 30.10 inHg , 1019.3 hPa
Summary: Mist
Clouds: Overcast
Visibility: 3 miles , 5 km
Cloud details: Overcast 600 ft
2021/10/20 19:53 KSTS 201953Z 00000KT 3SM BR OVC006 13/13 A3010 RMK AO2 RAE24 SLP185 P0001 T01330128
KMHR - Mather Field, California, USA
Distance from KPAO: ENE 76nm, 88mi
Updated: Wed, 20-Oct-2021 12:55pm PDT
Overcast
Overcast
 Wind from NNW
Wind: NNW 6 mph , 9 km/h
Temperature: 64°F , 18°C
Dew Point: 48°F , 9°C
Humidity: 56%
Barometer: 30.09 inHg , 1019 hPa
Clouds: Overcast
Visibility: 10 miles , 16 km
Cloud details: Overcast 4800 ft
2021/10/20 19:55 KMHR 201955Z AUTO 34005KT 10SM OVC048 18/09 A3009 RMK A01
 
KSMF - Sacramento/Metro, California, USA
Distance from KPAO: NE 78nm, 90mi
Updated: Wed, 20-Oct-2021 12:53pm PDT
Overcast
Overcast
 Wind from calm
Wind: Calm
Temperature: 63°F , 17°C
Dew Point: 52°F , 11°C
Humidity: 68%
Barometer: 30.10 inHg , 1019.3 hPa
Clouds: Overcast
Visibility: 10 miles , 16 km
Cloud details: Overcast 4300 ft
2021/10/20 19:53 KSMF 201953Z 00000KT 10SM OVC043 17/11 A3010 RMK AO2 SLP192 T01670111
KMCC - Mcclellan Afb, California, USA
Distance from KPAO: NE 80nm, 92mi
Updated: Wed, 20-Oct-2021 12:55pm PDT
Overcast
Overcast
 Wind from N
Wind: N 5 mph , 7 km/h
Temperature: 63°F , 17°C
Dew Point: 50°F , 10°C
Humidity: 64%
Barometer: 30.10 inHg , 1019.3 hPa
Clouds: Overcast
Visibility: 10 miles , 16 km
Cloud details: Broken 4000 ft
Overcast 4900 ft
2021/10/20 19:55 KMCC 201955Z AUTO 01004KT 10SM BKN040 OVC049 17/10 A3010 RMK AO2
 
KNKX - Miramar MCAS (Joe Foss Field) Airport, California, USA
Distance from KPAO: SE 368nm, 423mi
Updated: Wed, 20-Oct-2021 11:55am PDT
Few Clouds
Few Clouds
 Wind from NW
Wind: NW 9 mph , 15 km/h
Temperature: 68°F , 20°C
Dew Point: 48°F , 9°C
Humidity: 49%
Barometer: 30.11 inHg , 1019.6 hPa
Clouds: Few Clouds
Visibility: 10 miles , 16 km
Cloud details: Few Clouds 20000 ft
2021/10/20 18:55 KNKX 201855Z 32008KT 10SM FEW200 20/09 A3011 RMK AO2 SLP191 T02000089 $
KMYF - Montgomery-Gibbs Executive Airport, California, USA
Distance from KPAO: SE 371nm, 427mi
Updated: Wed, 20-Oct-2021 12:53pm PDT
Clear
Clear
 Wind from WNW
Wind: WNW 9 mph , 15 km/h
Temperature: 70°F , 21°C
Dew Point: 52°F , 11°C
Humidity: 53%
Barometer: 30.09 inHg , 1019 hPa
Clouds: Clear
Visibility: 10 miles , 16 km
2021/10/20 19:53 KMYF 201953Z 30008KT 10SM CLR 21/11 A3009 RMK AO2 SLP187 T02060106